»·PEaware :: N3786T KRNO-KSNA

N3786T :: KRNO-KSNA

FLIGHT INFORMATION

Flight Status: Arrived
Operator: Privately registered:
United States
More flights under this callsign
Pilot: David D. (7607)
Aircraft: Unknown
(EPIC)
More flights by this aircraft type
Origin: KRNO Reno/Tahoe Intl
United States
Destination: KSNA John Wayne-Orange Co
United States
More flights between these airports :: More routes between these airports
Route: +RENO9 FMG J5 EHF LHS V459 SLI
File this flight plan on PilotEdge
Remarks: NONE
Altitude:
(Current/Filed)
22,000ft
Speed:
(Current/Filed)
250kts
Departed: 15-May-19 11:49 AM
Arrived: 15-May-19 01:45 PM
Distance/Time
Traveled:
361nm/1:55
Distance/Time
To Go:
Arrived

Flight Plot

Page will automatically refresh every two minutes.


Map Options




Map Legend


Flown Route
Filed Route
Departure Airport
Arrival Airport
Navaid (VOR, NDB)
Fix

Horizontal Profiles

Position Reports

Time Latitude Longitude Heading Altitude Ground
Speed
15-May-19 11:04 39.506586 -119.764307 269 4405ft 0kts
15-May-19 11:05 39.506586 -119.764307 269 4405ft 0kts
15-May-19 11:06 39.506586 -119.764307 269 4405ft 0kts
15-May-19 11:07 39.506586 -119.764307 269 4405ft 0kts
15-May-19 11:08 39.506586 -119.764307 269 4405ft 0kts
15-May-19 11:09 39.506586 -119.764307 269 4405ft 0kts
15-May-19 11:10 39.506586 -119.764307 269 4405ft 0kts
15-May-19 11:11 39.506586 -119.764307 269 4405ft 0kts
15-May-19 11:12 39.506586 -119.764307 269 4405ft 0kts
15-May-19 11:13 39.506586 -119.764307 269 4405ft 0kts
15-May-19 11:14 39.506586 -119.764307 269 4405ft 0kts
15-May-19 11:15 39.506586 -119.764307 269 4405ft 0kts
15-May-19 11:16 39.506586 -119.764307 269 4405ft 0kts
15-May-19 11:17 39.506586 -119.764307 269 4405ft 0kts
15-May-19 11:18 39.506586 -119.764307 269 4405ft 0kts
15-May-19 11:19 39.506586 -119.764307 269 4405ft 0kts
15-May-19 11:20 39.506586 -119.764307 269 4405ft 0kts
15-May-19 11:21 39.506586 -119.764307 269 4405ft 0kts
15-May-19 11:22 39.506586 -119.764307 269 4405ft 0kts
15-May-19 11:23 39.506586 -119.764307 269 4405ft 0kts
15-May-19 11:24 39.506586 -119.764307 269 4405ft 0kts
15-May-19 11:25 39.506586 -119.764307 269 4405ft 0kts
15-May-19 11:26 39.506586 -119.764307 269 4405ft 0kts
15-May-19 11:27 39.506586 -119.764307 269 4405ft 0kts
15-May-19 11:28 39.506586 -119.764307 269 4405ft 0kts
15-May-19 11:29 39.506586 -119.764307 269 4405ft 0kts
15-May-19 11:30 39.506586 -119.764307 269 4405ft 0kts
15-May-19 11:31 39.506586 -119.764307 269 4405ft 0kts
15-May-19 11:32 39.506586 -119.764307 269 4405ft 0kts
15-May-19 11:33 39.506586 -119.764307 269 4405ft 0kts
15-May-19 11:34 39.506586 -119.764307 269 4405ft 0kts
15-May-19 11:35 39.506586 -119.764307 269 4405ft 0kts
15-May-19 11:36 39.506586 -119.764307 269 4405ft 0kts
15-May-19 11:37 39.506586 -119.764307 269 4405ft 0kts
15-May-19 11:38 39.506586 -119.764307 269 4405ft 0kts
15-May-19 11:39 39.506174 -119.765379 225 4405ft 11kts
15-May-19 11:40 39.502413 -119.765773 175 4403ft 9kts
15-May-19 11:41 39.498368 -119.765752 175 4401ft 18kts
15-May-19 11:42 39.493842 -119.765190 179 4400ft 27kts
15-May-19 11:43 39.489279 -119.765236 216 4403ft 3kts
15-May-19 11:44 39.489269 -119.765246 218 4403ft 0kts
15-May-19 11:45 39.489264 -119.765251 219 4403ft 1kts
15-May-19 11:46 39.489205 -119.765750 273 4403ft 0kts
15-May-19 11:47 39.489748 -119.766739 357 4404ft 28kts
15-May-19 11:48 39.529498 -119.772277 342 5756ft 188kts
15-May-19 11:49 39.594825 -119.774266 12 8185ft 217kts
15-May-19 11:50 39.655731 -119.750730 12 10252ft 229kts
15-May-19 11:51 39.713070 -119.718164 76 12290ft 225kts
15-May-19 11:52 39.680213 -119.676241 164 14371ft 181kts
15-May-19 11:53 39.635044 -119.654763 164 16348ft 168kts
15-May-19 11:54 39.591605 -119.633890 164 18330ft 178kts
15-May-19 11:55 39.545112 -119.611836 164 20329ft 180kts
15-May-19 11:56 39.499486 -119.603003 177 22257ft 170kts
15-May-19 11:57 39.451095 -119.598744 177 22947ft 210kts
15-May-19 11:58 39.394067 -119.593706 177 22935ft 246kts
15-May-19 11:59 39.324798 -119.587566 177 22928ft 258kts
15-May-19 12:00 39.253048 -119.581210 177 22925ft 262kts
15-May-19 12:01 39.180052 -119.574752 177 22925ft 262kts
15-May-19 12:02 39.107891 -119.568374 177 22937ft 259kts
15-May-19 12:03 39.035536 -119.562005 177 22948ft 261kts
15-May-19 12:04 38.963188 -119.555631 177 22943ft 255kts
15-May-19 12:05 38.893575 -119.549530 177 22955ft 254kts
15-May-19 12:06 38.824948 -119.543542 177 22959ft 258kts
15-May-19 12:07 38.753561 -119.537295 177 22958ft 259kts
15-May-19 12:08 38.682495 -119.531095 177 22957ft 259kts
15-May-19 12:09 38.614625 -119.530846 164 22965ft 262kts
15-May-19 12:10 38.546898 -119.513215 175 22955ft 259kts
15-May-19 12:11 38.479528 -119.503547 175 22953ft 259kts
15-May-19 12:12 38.410805 -119.493849 175 22948ft 259kts
15-May-19 12:13 38.341505 -119.484093 175 22945ft 259kts
15-May-19 12:14 38.271275 -119.474193 175 22936ft 258kts
15-May-19 12:15 38.204192 -119.464776 175 22959ft 240kts
15-May-19 12:16 38.137993 -119.455549 175 23006ft 252kts
15-May-19 12:17 38.070335 -119.446097 175 23057ft 255kts
15-May-19 12:18 38.002413 -119.436626 175 23058ft 257kts
15-May-19 12:19 37.931854 -119.426808 175 23058ft 258kts
15-May-19 12:20 37.867858 -119.417926 175 23070ft 261kts
15-May-19 12:21 37.800462 -119.408575 175 23068ft 263kts
15-May-19 12:22 37.730946 -119.398966 175 23068ft 264kts
15-May-19 12:23 37.660553 -119.389235 175 23067ft 264kts
15-May-19 12:24 37.588705 -119.379329 175 23065ft 263kts
15-May-19 12:25 37.515453 -119.369247 175 23051ft 264kts
15-May-19 12:26 37.444648 -119.359518 175 23039ft 263kts
15-May-19 12:27 37.373286 -119.349740 176 23038ft 263kts
15-May-19 12:28 37.300694 -119.339811 176 23040ft 263kts
15-May-19 12:29 37.228245 -119.329911 176 23026ft 263kts
15-May-19 12:30 37.156923 -119.320194 176 22997ft 263kts
15-May-19 12:31 37.084077 -119.310257 177 22975ft 263kts
15-May-19 12:32 37.011594 -119.300416 178 22974ft 265kts
15-May-19 12:33 36.940234 -119.290753 179 22974ft 268kts
15-May-19 12:34 36.880972 -119.282749 179 22983ft 270kts
15-May-19 12:35 36.824473 -119.275122 179 22984ft 271kts
15-May-19 12:36 36.755767 -119.265855 179 22983ft 272kts
15-May-19 12:37 36.688472 -119.256796 179 22982ft 272kts
15-May-19 12:38 36.608314 -119.246023 179 22981ft 272kts
15-May-19 12:39 36.526443 -119.235048 179 22980ft 271kts
15-May-19 12:40 36.445885 -119.224275 179 22979ft 269kts
15-May-19 12:41 36.364070 -119.213348 179 22978ft 268kts
15-May-19 12:42 36.289852 -119.203458 179 22978ft 268kts
15-May-19 12:44 36.215834 -119.193615 179 22977ft 268kts
15-May-19 12:45 36.141701 -119.183772 179 22976ft 268kts
15-May-19 12:46 36.067546 -119.173950 179 22976ft 268kts
15-May-19 12:47 35.993619 -119.164176 179 22975ft 268kts
15-May-19 12:48 35.919622 -119.154410 179 22972ft 268kts
15-May-19 12:49 35.847093 -119.144853 179 22981ft 268kts
15-May-19 12:50 35.780459 -119.136092 179 22978ft 269kts
15-May-19 12:51 35.705185 -119.126210 179 22975ft 269kts
15-May-19 12:52 35.630796 -119.116450 179 22970ft 269kts
15-May-19 12:53 35.556714 -119.106777 179 22963ft 269kts
15-May-19 12:54 35.483037 -119.094850 163 22956ft 279kts
15-May-19 12:55 35.413271 -119.050588 159 22953ft 282kts
15-May-19 12:56 35.344326 -119.005484 159 22952ft 282kts
15-May-19 12:57 35.274893 -118.960127 159 22952ft 284kts
15-May-19 12:58 35.205150 -118.914655 159 22952ft 286kts
15-May-19 12:59 35.134479 -118.868668 159 22971ft 288kts
15-May-19 13:00 35.065441 -118.823833 159 23007ft 290kts
15-May-19 13:01 34.996899 -118.779403 160 23034ft 292kts
15-May-19 13:02 34.927057 -118.734217 160 23033ft 292kts
15-May-19 13:03 34.866633 -118.695203 160 23041ft 292kts
15-May-19 13:04 34.807719 -118.657225 160 23037ft 293kts
15-May-19 13:05 34.738212 -118.612519 160 22724ft 294kts
15-May-19 13:06 34.665531 -118.566837 162 21522ft 283kts
15-May-19 13:07 34.594248 -118.524993 161 20032ft 281kts
15-May-19 13:08 34.523685 -118.483689 160 18546ft 280kts
15-May-19 13:09 34.455692 -118.443961 160 17108ft 280kts
15-May-19 13:09 34.399551 -118.411211 159 15911ft 273kts
15-May-19 13:11 34.324175 -118.367310 159 14171ft 253kts
15-May-19 13:12 34.270348 -118.336008 159 13029ft 245kts
15-May-19 13:13 34.217728 -118.305411 160 12994ft 217kts
15-May-19 13:14 34.169314 -118.277353 160 12997ft 210kts
15-May-19 13:14 34.135055 -118.257510 160 12996ft 208kts
15-May-19 13:16 34.072573 -118.221369 160 12994ft 207kts
15-May-19 13:16 34.028753 -118.196022 160 12997ft 207kts
15-May-19 13:17 33.978357 -118.166947 160 12999ft 207kts
15-May-19 13:19 33.919617 -118.133115 160 12998ft 207kts
15-May-19 13:19 33.878334 -118.122289 164 12572ft 222kts
15-May-19 13:20 33.826357 -118.099683 185 11475ft 233kts
15-May-19 13:21 33.762055 -118.112540 191 10211ft 238kts
15-May-19 13:22 33.699008 -118.108364 141 8929ft 249kts
15-May-19 13:23 33.667356 -118.041454 69 7655ft 267kts
15-May-19 13:24 33.715880 -118.003697 43 6880ft 223kts
15-May-19 13:25 33.748305 -117.959610 51 6445ft 200kts
15-May-19 13:26 33.779868 -117.914511 50 5989ft 192kts
15-May-19 13:27 33.811286 -117.869572 49 5534ft 190kts
15-May-19 13:28 33.841475 -117.826339 48 5092ft 188kts
15-May-19 13:29 33.871270 -117.783623 47 4996ft 170kts
15-May-19 13:30 33.899190 -117.743559 46 4996ft 161kts
15-May-19 13:31 33.929626 -117.709897 8 4628ft 170kts
15-May-19 13:32 33.974649 -117.679286 4 3580ft 191kts
15-May-19 13:33 33.979980 -117.712965 188 3502ft 163kts
15-May-19 13:34 33.936650 -117.727968 190 3493ft 157kts
15-May-19 13:35 33.894275 -117.739379 202 3497ft 155kts
15-May-19 13:36 33.857766 -117.755164 205 3378ft 105kts
15-May-19 13:37 33.829588 -117.771212 211 3120ft 116kts
15-May-19 13:38 33.800407 -117.789678 210 2628ft 116kts
15-May-19 13:39 33.772832 -117.807190 209 2199ft 104kts
15-May-19 13:40 33.747935 -117.822696 208 1332ft 95kts
15-May-19 13:41 33.725197 -117.837751 207 890ft 96kts
15-May-19 13:42 33.701332 -117.852889 207 932ft 88kts
15-May-19 13:43 33.683068 -117.864083 207 115ft 77kts
15-May-19 13:44 33.675952 -117.869666 303 59ft 2kts
15-May-19 13:45 33.675952 -117.869668 303 59ft 0kts

Navigation Log

Ident Type
Flight plan parsing failed, navigation log unavailable